• Join FlightAware (Why Join?)
  • Login
  • US Flag 
03:03PM EDT


 

Airport Tracker/Info


-or-


 

Live Flight TrackerFlight Track Log ✈ DAL6201 ✈ 21-Jul-2013 ✈ KPIT - KLGA

Flight Track Log - Related Links

Times and Time Zones

All times are in EDT time to prevent confusion due to time zone crossing. See the DAL6201 flight status page for this flight to view local times or setup timezone preferences in your user account.

Time Position Orientation Groundspeed Altitude Reporting Facility
EDT Latitude Longitude Course Direction KTS MPH feet Rate Location/Type
07:33PM 40.5458 -80.1294 74° East 198 228 5,200  Level Cleveland Center
07:34PM 40.5975 -80.0636 44° Northeast 220 253 7,200 2,340 Climbing Cleveland Center
07:35PM 40.6242 -79.9647 70° East 249 287 9,900 2,340 Climbing Cleveland Center
07:36PM 40.6339 -79.8472 84° East 278 320 11,900 1,920 Climbing Cleveland Center
07:37PM 40.5501 -79.3829 80° East  Level Estimated
07:37PM 40.6433 -79.7156 85° East 323 372 13,800  Level Cleveland Center
07:38PM 40.5796 -79.2460 74° East  Level FlightAware Approximate
07:38PM 40.6528 -79.5758 85° East 361 415 15,500  Level Cleveland Center
07:39PM 40.6639 -79.4308 84° East 383 441 17,500 1,680 Climbing Cleveland Center
07:40PM 40.6767 -79.2800 84° East 403 464 18,900 1,500 Climbing Cleveland Center
07:41PM 40.7022 -79.1314 77° East 409 471 20,600 1,680 Climbing Cleveland Center
07:42PM 40.7292 -78.9747 77° East 415 478 22,300 1,200 Climbing Cleveland Center
07:43PM 40.7647 -78.8422 70° East 415 478 23,100 900 Climbing Cleveland Center
07:44PM 40.8122 -78.6875 68° East 436 502 24,200 1,200 Climbing Cleveland Center
07:45PM 40.8803 -78.5153 62° Northeast 461 531 25,500 960 Climbing Cleveland Center
07:46PM 41.0006 -78.4839 11° North 413 475 26,200 840 Climbing Cleveland Center
07:47PM 41.1281 -78.5019 354° North 401 461 27,200 960 Climbing Cleveland Center
07:48PM 41.2517 -78.2944 52° Northeast 419 482 29,000 600 Climbing New York Center
07:49PM 41.2108 -78.1161 107° East 428 493 29,000  Level New York Center
07:50PM 41.1900 -77.9456 99° East 443 510 29,000 -240 Level New York Center
07:51PM 41.1706 -77.7836 99° East 448 516 28,600 -1,020 Descending New York Center
07:52PM 41.1483 -77.6269 101° East 442 509 27,000 -1,560 Descending New York Center
07:53PM 41.1303 -77.4681 99° East 442 509 25,500 -1,440 Descending New York Center
07:54PM 41.1106 -77.3392 101° East 411 473 24,200 -1,200 Descending New York Center
07:55PM 41.0933 -77.1944 99° East 399 459 23,200 -600 Descending New York Center
07:56PM 41.0756 -77.0633 100° East 379 436 23,000 -120 Descending New York Center
07:57PM 41.0553 -76.9292 101° East 373 429 23,000  Level New York Center
07:58PM 41.0392 -76.7986 99° East 368 423 23,000  Level New York Center
07:59PM 41.0208 -76.6647 100° East 363 418 23,000 -480 Level New York Center
08:00PM 41.0517 -76.5492 70° East 337 388 22,100 -540 Descending New York Center
08:01PM 41.1250 -76.5831 341° North 212 244 22,000 -60 Descending New York Center
08:02PM 41.1386 -76.6861 280° West 144 166 22,000  Level New York Center
08:03PM 41.1522 -76.7864 280° West 212 244 22,000  Level New York Center
08:04PM 41.1742 -76.8878 286° West 262 302 22,000  Level New York Center
08:05PM 41.2006 -76.9839 290° West 275 316 22,000  Level New York Center
08:06PM 41.1611 -77.0575 235° Southwest 255 293 22,000  Level New York Center
08:07PM 41.0925 -76.9794 139° Southeast 171 197 22,000 -600 Level New York Center
08:08PM 41.0600 -76.8417 107° East 259 298 20,800 -1,320 Descending New York Center
08:09PM 41.0311 -76.7097 106° East 316 364 19,400 -960 Descending New York Center
08:10PM 41.0022 -76.5781 106° East 354 407 19,000 -240 Descending New York Center
08:11PM 40.9694 -76.4378 107° East 365 420 19,000 -60 Level New York Center
08:12PM 40.9414 -76.3256 108° East 365 420 18,900 -840 Descending New York Center
08:13PM 40.9083 -76.1856 107° East 360 414 17,400 -1,380 Descending New York Center
08:14PM 40.8764 -76.0650 109° East 355 409 16,200 -720 Descending New York Center
08:15PM 40.8519 -75.9589 107° East 350 403 16,000 -540 Descending New York Center
08:16PM 40.8217 -75.8386 108° East 350 403 15,200 -1,140 Descending New York Center
08:17PM 40.7933 -75.7214 108° East 338 389 13,800 -1,140 Descending New York Center
08:18PM 40.7631 -75.5986 108° East 332 382 13,000 -420 Descending New York Center
08:19PM 40.7381 -75.4956 108° East 324 373 13,000 -720 Level New York Center
08:20PM 40.7114 -75.3786 107° East 329 379 11,600 -1,320 Descending New York Center
08:21PM 40.6886 -75.2675 105° East 324 373 10,400 -840 Descending New York Center
08:22PM 40.6594 -75.1508 108° East 318 366 10,000 -240 Descending New York Center
08:23PM 40.6044 -75.0653 130° Southeast 301 346 10,000  Level New York Center
08:24PM 40.5636 -74.9808 122° Southeast 301 346 10,000  Level New York Center
08:25PM 40.5317 -74.8833 113° Southeast 288 331 10,000  Level New York Center
08:26PM 40.5036 -74.7861 111° Southeast 266 306 10,000 -240 Level New York Center
08:27PM 40.4644 -74.7128 125° Southeast 260 299 9,600 -540 Descending New York Center
08:28PM 40.4147 -74.6444 134° Southeast 255 293 9,000 -300 Descending New York Center
08:29PM 40.4092 -74.5597 95° East 243 280 9,000  Level New York Center
08:30PM 40.4167 -74.4567 85° East 248 285 9,000 -180 Level New York Center
08:31PM 40.4194 -74.3614 88° East 253 291 8,700 -780 Descending New York Center
08:32PM 40.4325 -74.2719 79° East 253 291 7,500 -900 Descending New York Center
08:33PM 40.4619 -74.1944 63° Northeast 240 276 7,000 -540 Descending New York Center
08:34PM 40.5058 -74.1228 51° Northeast 235 270 6,500 -840 Descending New York Center
08:35PM 40.5572 -74.0736 36° Northeast 230 265 5,400 -1,200 Descending New York Center
08:36PM 40.6139 -74.0544 14° North 221 254 4,200 -960 Descending New York Center
08:37PM 40.6500 -74.0333 24° Northeast 229 264 4,000 -180 Descending New York TRACON
08:38PM 40.7167 -74.0167 11° North 228 262 4,000  Level New York TRACON
08:39PM 40.7667 -74.0000 14° North 229 264 4,000  Level New York TRACON
08:40PM 40.8333 -73.9667 21° North 233 268 4,000  Level New York TRACON
08:41PM 40.8833 -73.9333 27° Northeast 200 230 4,000  Level New York TRACON
08:42PM 40.9333 -73.9000 27° Northeast 190 219 4,000 -60 Level New York TRACON
08:43PM 40.9667 -73.8500 49° Northeast 196 226 3,900 -540 Descending New York TRACON
08:44PM 40.9333 -73.8000 131° Southeast 190 219 3,000 -960 Descending New York TRACON
08:45PM 40.8833 -73.7833 166° South 190 219 2,000 -720 Descending New York TRACON
08:46PM 40.8500 -73.8167 217° Southwest 142 163 1,600 -600 Descending New York TRACON
08:47PM 40.8167 -73.8333 201° Southwest 135 155 900 -720 Descending New York TRACON